Time;durP1;ratioP1;P1;durP2;ratioP2;P2;SDS_P1;SDS_P2;PMS_P1;PMS_P2;Temp;Humidity;BMP_temperature;BMP_pressure;BME280_temperature;BME280_humidity;BME280_pressure;Samples;Min_cycle;Max_cycle;Signal;HPM_P1;HPM_P2
2021/05/13 00:01:12;;;;;;;;;;;9.60;99.90;;;8.50;100.00;95025.59;10333862;28;1928;-85
2021/05/13 00:06:15;;;;;;;;;;;9.60;99.90;;;8.47;100.00;95023.47;10311181;28;1849;-85
2021/05/13 00:11:20;;;;;;;;;;;9.60;99.90;;;8.48;100.00;95017.03;10336620;28;1887;-85
2021/05/13 00:16:28;;;;;;;;;;;9.60;99.90;;;8.49;100.00;95017.84;10301171;28;1880;-84
2021/05/13 00:21:30;;;;;;;;;;;9.60;99.90;;;8.44;100.00;95013.31;10311975;28;2044;-84
2021/05/13 00:26:37;;;;;;;;;;;9.50;99.90;;;8.45;100.00;95012.22;10318705;28;2197;-85
2021/05/13 00:31:40;;;;;;;;;;;9.50;99.90;;;8.48;100.00;95008.19;10334348;28;2082;-84
2021/05/13 00:36:43;;;;;;;;;;;9.60;99.90;;;8.50;100.00;94996.13;10292323;28;2371;-85
2021/05/13 00:41:45;;;;;;;;;;;9.60;99.90;;;8.44;100.00;94988.41;10296261;28;2164;-84
2021/05/13 00:46:48;;;;;;;;;;;9.50;99.90;;;8.44;100.00;94983.84;10297994;28;2105;-85
2021/05/13 00:51:51;;;;;;;;;;;9.50;99.90;;;8.45;100.00;94985.44;10317876;28;2236;-85
2021/05/13 00:56:54;;;;;;;;;;;9.60;99.90;;;8.46;100.00;94976.34;10289779;28;1989;-85
2021/05/13 01:01:58;;;;;;;;;;;9.50;99.90;;;8.51;100.00;94978.97;10319116;28;2314;-85
2021/05/13 01:07:01;;;;;;;;;;;9.50;99.90;;;8.51;100.00;94975.50;10319055;28;2190;-85
2021/05/13 01:12:06;;;;;;;;;;;9.60;99.90;;;8.49;100.00;94973.09;10291490;28;2321;-84
2021/05/13 01:17:18;;;;;;;;;;;9.60;99.90;;;8.51;100.00;94978.97;10333921;28;2154;-83
2021/05/13 01:22:20;;;;;;;;;;;9.60;99.90;;;8.54;100.00;94974.94;10302915;28;2252;-82
2021/05/13 01:27:23;;;;;;;;;;;9.60;99.90;;;8.52;100.00;94967.16;10300349;28;2071;-84
2021/05/13 01:32:25;;;;;;;;;;;9.70;99.90;;;8.59;100.00;94965.00;10296669;28;2280;-83
2021/05/13 01:37:28;;;;;;;;;;;9.70;99.90;;;8.55;100.00;94963.16;10297380;28;2103;-83
2021/05/13 01:42:30;;;;;;;;;;;9.70;99.90;;;8.60;100.00;94965.78;10300417;28;2112;-84
2021/05/13 01:47:33;;;;;;;;;;;9.70;99.90;;;8.64;100.00;94962.25;10289483;28;1323;-85
2021/05/13 01:52:38;;;;;;;;;;;9.70;99.90;;;8.64;100.00;94948.06;10300409;28;2028;-85
2021/05/13 01:57:40;;;;;;;;;;;9.70;99.90;;;8.59;100.00;94948.91;10314394;28;2109;-84
2021/05/13 02:02:44;;;;;;;;;;;9.70;99.90;;;8.54;100.00;94938.25;10327328;28;2209;-86
2021/05/13 02:07:47;;;;;;;;;;;9.70;99.90;;;8.51;100.00;94941.47;10323633;28;2110;-86
2021/05/13 02:12:49;;;;;;;;;;;9.60;99.90;;;8.54;100.00;94946.28;10317702;28;2350;-84
2021/05/13 02:17:51;;;;;;;;;;;9.60;99.90;;;8.56;100.00;94946.78;10311195;28;2223;-84
2021/05/13 02:22:55;;;;;;;;;;;9.70;99.90;;;8.60;100.00;94937.13;10319560;28;2153;-85
2021/05/13 02:27:57;;;;;;;;;;;9.70;99.90;;;8.63;100.00;94939.22;10328336;28;2086;-85
2021/05/13 02:32:59;;;;;;;;;;;9.70;99.90;;;8.62;100.00;94926.13;10329678;28;2135;-86
2021/05/13 02:38:02;;;;;;;;;;;9.70;99.90;;;8.56;100.00;94921.88;10323452;28;2204;-85
2021/05/13 02:43:05;;;;;;;;;;;9.70;99.90;;;8.58;100.00;94917.84;10323310;28;2098;-84
2021/05/13 02:48:07;;;;;;;;;;;9.70;99.90;;;8.54;100.00;94918.69;10332857;28;2093;-85
2021/05/13 02:53:09;;;;;;;;;;;9.70;99.90;;;8.54;100.00;94911.47;10338588;28;2076;-84
2021/05/13 02:58:12;;;;;;;;;;;9.60;99.90;;;8.56;100.00;94911.97;10327822;28;2066;-86
2021/05/13 03:03:14;;;;;;;;;;;9.70;99.90;;;8.52;100.00;94916.28;10320072;28;2172;-82
2021/05/13 03:08:17;;;;;;;;;;;9.60;99.90;;;8.50;100.00;94913.09;10320339;28;2277;-86
2021/05/13 03:13:22;;;;;;;;;;;9.60;99.90;;;8.46;100.00;94914.75;10329828;28;2157;-86
2021/05/13 03:18:27;;;;;;;;;;;9.60;99.90;;;8.42;100.00;94902.19;10348078;28;2145;-83
2021/05/13 03:23:37;;;;;;;;;;;9.50;99.90;;;8.42;100.00;94907.53;10315767;28;2540;-83
2021/05/13 03:28:39;;;;;;;;;;;9.50;99.90;;;8.38;100.00;94907.28;10286376;28;2130;-84
2021/05/13 03:33:41;;;;;;;;;;;9.50;99.90;;;8.39;100.00;94895.50;10288552;28;2356;-82
2021/05/13 03:38:44;;;;;;;;;;;9.50;99.90;;;8.40;100.00;94899.81;10327312;28;1957;-83
2021/05/13 03:43:47;;;;;;;;;;;9.50;99.90;;;8.39;100.00;94900.84;10306897;28;1327;-83
2021/05/13 03:48:49;;;;;;;;;;;9.50;99.90;;;8.38;100.00;94897.38;10318046;28;1954;-84
2021/05/13 03:53:52;;;;;;;;;;;9.50;99.90;;;8.40;100.00;94897.13;10318163;28;1880;-81
2021/05/13 03:58:55;;;;;;;;;;;9.50;99.90;;;8.39;100.00;94898.97;10315510;28;1697;-85
2021/05/13 04:03:58;;;;;;;;;;;9.50;99.90;;;8.43;100.00;94901.91;10318806;28;2139;-85
2021/05/13 04:09:00;;;;;;;;;;;9.50;99.90;;;8.41;100.00;94901.41;10335192;28;2029;-85
2021/05/13 04:14:03;;;;;;;;;;;9.50;99.90;;;8.39;100.00;94900.84;10345399;28;2277;-83
2021/05/13 04:19:05;;;;;;;;;;;9.50;99.90;;;8.36;100.00;94901.44;10311267;28;1945;-83
2021/05/13 04:24:08;;;;;;;;;;;9.50;99.90;;;8.48;100.00;94906.44;10301158;28;2177;-84
2021/05/13 04:29:10;;;;;;;;;;;9.50;99.90;;;8.54;100.00;94903.41;10294861;28;1993;-83
2021/05/13 04:34:12;;;;;;;;;;;9.60;99.90;;;8.58;100.00;94909.00;10301234;28;2071;-82
2021/05/13 04:39:15;;;;;;;;;;;9.60;99.90;;;8.61;100.00;94903.88;10292287;28;2077;-83
2021/05/13 04:44:17;;;;;;;;;;;9.70;99.90;;;8.70;100.00;94906.75;10283427;28;2298;-83
2021/05/13 04:49:19;;;;;;;;;;;9.80;99.90;;;8.77;100.00;94906.41;10281334;28;2422;-84
2021/05/13 04:54:21;;;;;;;;;;;9.80;99.90;;;8.80;100.00;94911.22;10304018;28;2137;-81
2021/05/13 04:59:24;;;;;;;;;;;9.80;99.90;;;8.84;100.00;94906.88;10300008;28;2284;-82
2021/05/13 05:04:26;;;;;;;;;;;9.90;99.90;;;8.76;100.00;94913.66;10288830;28;2058;-83
2021/05/13 05:09:28;;;;;;;;;;;9.80;99.90;;;8.81;100.00;94912.81;10288678;28;2192;-83
2021/05/13 05:14:31;;;;;;;;;;;9.90;99.90;;;8.94;100.00;94906.78;10280721;28;2097;-80
2021/05/13 05:19:33;;;;;;;;;;;10.00;99.90;;;8.91;100.00;94902.00;10295603;28;2159;-81
2021/05/13 05:24:35;;;;;;;;;;;10.00;99.90;;;8.89;99.33;94906.81;10292640;28;2271;-84
2021/05/13 05:29:38;;;;;;;;;;;10.00;99.90;;;8.90;99.53;94905.75;10285692;28;2145;-85
2021/05/13 05:34:40;;;;;;;;;;;10.00;99.90;;;9.08;98.86;94896.97;10290703;28;2277;-84
2021/05/13 05:39:42;;;;;;;;;;;10.10;99.90;;;9.15;98.44;94896.63;10290335;28;1999;-83
2021/05/13 05:44:45;;;;;;;;;;;10.20;99.90;;;9.24;98.03;94894.94;10300677;28;1702;-84
2021/05/13 05:49:47;;;;;;;;;;;10.20;99.90;;;9.25;97.21;94885.00;10291746;28;2169;-84
2021/05/13 05:54:50;;;;;;;;;;;10.20;99.90;;;9.25;97.98;94879.63;10293300;28;2312;-82
2021/05/13 05:59:52;;;;;;;;;;;10.20;99.90;;;9.46;97.45;94886.34;10292425;28;2076;-85
2021/05/13 06:04:55;;;;;;;;;;;10.40;99.90;;;9.76;97.30;94882.47;10283906;28;1900;-84
2021/05/13 06:09:57;;;;;;;;;;;10.60;99.90;;;9.80;95.93;94885.34;10294495;28;2404;-83
2021/05/13 06:14:59;;;;;;;;;;;10.80;99.90;;;10.08;95.07;94892.47;10295854;28;2372;-82
2021/05/13 06:20:02;;;;;;;;;;;11.00;99.90;;;10.38;95.30;94885.06;10310001;28;2297;-82
2021/05/13 06:25:04;;;;;;;;;;;11.10;99.90;;;10.52;92.65;94885.91;10294002;28;2301;-83
2021/05/13 06:30:07;;;;;;;;;;;11.50;99.90;;;10.68;92.98;94879.16;10305638;28;2376;-84
2021/05/13 06:35:10;;;;;;;;;;;11.60;99.90;;;10.75;91.49;94890.34;10307410;28;1646;-84
2021/05/13 06:40:18;;;;;;;;;;;11.70;99.90;;;10.96;92.44;94896.16;10318145;28;1665;-86
2021/05/13 07:08:42;;;;;;;;;;;12.60;99.90;;;11.77;87.74;94896.44;10011048;29;1914;-88
2021/05/13 07:19:13;;;;;;;;;;;12.70;99.90;;;11.92;86.09;94886.44;10040029;29;2165;-87
2021/05/13 07:24:15;;;;;;;;;;;13.00;99.90;;;12.25;83.98;94887.84;10041482;29;1266;-85
2021/05/13 07:35:01;;;;;;;;;;;13.30;99.90;;;12.41;81.93;94885.59;10318175;28;2157;-83
2021/05/13 07:40:04;;;;;;;;;;;13.30;99.90;;;12.82;81.24;94874.56;10329184;28;2013;-81
2021/05/13 07:45:06;;;;;;;;;;;13.50;99.90;;;12.56;79.63;94882.50;10313257;28;1914;-82
2021/05/13 07:50:09;;;;;;;;;;;13.60;99.90;;;13.03;77.43;94887.50;10312771;28;2002;-84
2021/05/13 07:55:11;;;;;;;;;;;13.80;99.90;;;13.17;79.18;94885.53;10317844;28;2137;-85
2021/05/13 08:00:14;;;;;;;;;;;14.00;99.90;;;13.59;76.74;94886.00;10308791;28;2236;-84
2021/05/13 08:05:16;;;;;;;;;;;14.40;99.90;;;13.93;74.56;94877.16;10317344;28;2131;-83
2021/05/13 08:10:18;;;;;;;;;;;14.70;99.90;;;13.53;73.29;94871.84;10292878;28;2357;-84
2021/05/13 08:15:21;;;;;;;;;;;14.60;99.90;;;13.14;72.07;94870.75;10288945;28;2443;-82
2021/05/13 08:20:23;;;;;;;;;;;14.30;99.90;;;13.35;75.02;94876.41;10291010;28;2567;-83
2021/05/13 08:25:25;;;;;;;;;;;14.20;99.90;;;13.01;74.17;94870.84;10307383;28;2588;-81
2021/05/13 08:30:29;;;;;;;;;;;14.10;99.90;;;13.44;72.84;94865.66;10318839;28;2213;-82
2021/05/13 08:35:32;;;;;;;;;;;14.10;99.90;;;13.47;72.73;94868.50;10322395;28;2152;-84
2021/05/13 08:40:34;;;;;;;;;;;14.30;99.90;;;13.86;74.00;94858.72;10309407;28;1699;-84
2021/05/13 08:45:37;;;;;;;;;;;14.60;99.90;;;14.12;71.23;94856.03;10319348;28;2148;-85
2021/05/13 08:50:39;;;;;;;;;;;14.80;99.90;;;13.95;70.08;94856.06;10311416;28;2074;-82
2021/05/13 08:55:41;;;;;;;;;;;14.90;99.90;;;13.99;70.72;94852.38;10288567;28;1643;-82
2021/05/13 09:00:44;;;;;;;;;;;14.80;99.90;;;14.67;67.35;94846.47;10291283;28;1343;-83
2021/05/13 09:05:46;;;;;;;;;;;15.10;99.90;;;14.76;65.87;94853.47;10328097;28;1765;-83
2021/05/13 09:10:49;;;;;;;;;;;15.40;99.90;;;14.86;64.58;94846.91;10305736;28;1985;-85
2021/05/13 09:15:51;;;;;;;;;;;15.50;99.90;;;14.61;65.42;94851.25;10304035;28;1199;-83
2021/05/13 09:20:54;;;;;;;;;;;13.80;99.90;;;15.22;61.77;94851.88;10306429;28;1727;-83
2021/05/13 09:25:56;;;;;;;;;;;15.80;99.90;;;15.33;62.79;94849.59;10293770;28;1099;-85
2021/05/13 09:30:58;;;;;;;;;;;16.00;99.90;;;15.94;61.65;94841.94;10297833;28;2132;-83
2021/05/13 09:36:11;;;;;;;;;;;16.40;99.90;;;16.23;57.97;94835.66;10310617;28;1629;-82
2021/05/13 09:41:13;;;;;;;;;;;16.10;99.90;;;16.19;55.70;94835.53;10324320;28;1709;-84
2021/05/13 09:46:18;;;;;;;;;;;17.10;99.90;;;15.58;56.42;94832.41;10311016;28;1661;-87
2021/05/13 09:51:20;;;;;;;;;;;16.70;99.90;;;15.72;55.42;94821.38;10302132;28;1990;-84
2021/05/13 09:56:23;;;;;;;;;;;16.60;99.90;;;15.61;57.61;94825.56;10308998;28;1610;-83
2021/05/13 10:01:25;;;;;;;;;;;16.70;99.90;;;15.22;57.08;94826.72;10312522;28;1323;-84
2021/05/13 10:06:28;;;;;;;;;;;16.50;99.90;;;15.18;58.01;94813.03;10318951;28;1606;-85
2021/05/13 10:11:31;;;;;;;;;;;16.20;99.90;;;15.36;57.35;94811.03;10295259;28;1985;-84
2021/05/13 10:16:33;;;;;;;;;;;16.10;99.90;;;14.80;58.77;94815.75;10290271;28;1236;-84
2021/05/13 10:21:36;;;;;;;;;;;15.90;99.90;;;14.25;62.51;94802.94;10320083;28;1635;-85
2021/05/13 10:26:40;;;;;;;;;;;15.70;99.90;;;14.76;62.71;94814.78;10329373;28;2050;-85
2021/05/13 10:31:43;;;;;;;;;;;15.60;99.90;;;15.11;61.93;94802.72;10328939;28;1907;-83
2021/05/13 10:36:46;;;;;;;;;;;15.80;99.90;;;14.22;71.86;94812.50;10319484;28;1396;-86
2021/05/13 10:41:48;;;;;;;;;;;15.80;99.90;;;13.24;77.45;94811.16;10295711;28;1575;-85
2021/05/13 10:46:51;;;;;;;;;;;14.90;99.90;;;12.98;82.32;94812.94;10289428;28;1642;-84
2021/05/13 10:51:54;;;;;;;;;;;14.30;99.90;;;13.18;77.79;94800.78;10315594;28;2239;-85
2021/05/13 10:56:56;;;;;;;;;;;14.20;99.90;;;13.44;80.04;94801.66;10320456;28;1208;-83
2021/05/13 11:02:01;;;;;;;;;;;14.30;99.90;;;14.26;77.55;94791.03;10298069;28;2007;-85
2021/05/13 11:07:05;;;;;;;;;;;14.80;99.90;;;14.53;70.70;94782.56;10301787;28;1940;-85
2021/05/13 11:12:07;;;;;;;;;;;15.20;99.90;;;14.68;70.49;94785.84;10297510;28;1910;-85
2021/05/13 11:17:10;;;;;;;;;;;15.50;99.90;;;15.68;61.95;94775.19;10313628;28;1904;-84
2021/05/13 11:22:12;;;;;;;;;;;15.90;99.90;;;15.93;64.74;94776.09;10292338;28;2196;-85
2021/05/13 11:27:15;;;;;;;;;;;16.50;99.90;;;15.72;63.91;94779.94;10313260;28;1756;-85
2021/05/13 11:32:17;;;;;;;;;;;16.60;99.90;;;15.37;59.62;94775.50;10315592;28;1895;-82
2021/05/13 11:37:20;;;;;;;;;;;16.50;99.90;;;15.02;59.74;94768.72;10333218;28;1861;-85
2021/05/13 11:42:23;;;;;;;;;;;16.20;99.90;;;14.81;63.12;94771.31;10322225;28;1714;-86
2021/05/13 11:47:25;;;;;;;;;;;15.90;99.90;;;14.83;62.16;94774.53;10306789;28;2030;-86
2021/05/13 11:52:28;;;;;;;;;;;15.80;99.90;;;14.54;60.31;94775.25;10311906;28;2090;-85
2021/05/13 11:57:31;;;;;;;;;;;15.60;99.90;;;14.46;62.15;94776.03;10302431;28;1924;-86
2021/05/13 12:02:34;;;;;;;;;;;15.40;99.90;;;14.82;67.05;94772.91;10297670;28;1936;-86
2021/05/13 12:07:38;;;;;;;;;;;15.50;99.90;;;14.71;68.02;94769.78;10297183;28;1532;-86
2021/05/13 12:12:40;;;;;;;;;;;15.60;99.90;;;14.20;69.91;94771.47;10324006;28;1970;-83
2021/05/13 12:17:43;;;;;;;;;;;15.50;99.90;;;13.97;72.15;94762.75;10280866;28;1936;-86
2021/05/13 12:22:46;;;;;;;;;;;15.20;99.90;;;13.93;72.82;94767.22;10292019;28;2148;-85
2021/05/13 12:27:48;;;;;;;;;;;15.00;99.90;;;13.76;75.69;94772.63;10286297;28;2131;-85
2021/05/13 12:32:54;;;;;;;;;;;14.90;99.90;;;13.95;74.62;94772.31;10291961;28;1989;-86
2021/05/13 12:37:57;;;;;;;;;;;14.90;99.90;;;13.84;78.34;94773.72;10291155;28;1922;-85
2021/05/13 12:42:59;;;;;;;;;;;14.90;99.90;;;13.92;79.69;94778.31;10296217;28;2113;-86
2021/05/13 12:48:02;;;;;;;;;;;15.00;99.90;;;13.66;82.55;94779.13;10299491;28;1901;-83
2021/05/13 12:53:05;;;;;;;;;;;14.90;99.90;;;13.35;82.40;94790.03;10327791;28;2074;-85
2021/05/13 12:58:07;;;;;;;;;;;14.70;99.90;;;13.33;84.58;94776.06;10295024;28;2229;-88
2021/05/13 13:03:14;;;;;;;;;;;14.60;99.90;;;13.41;82.75;94783.38;10295098;28;2138;-86
2021/05/13 13:08:17;;;;;;;;;;;14.60;99.90;;;13.30;82.06;94781.31;10279327;28;2210;-87
2021/05/13 13:13:22;;;;;;;;;;;14.40;99.90;;;13.18;81.86;94779.19;10311422;28;2322;-86
2021/05/13 13:18:25;;;;;;;;;;;14.30;99.90;;;13.26;77.61;94786.53;10292966;28;2130;-86
2021/05/13 13:23:28;;;;;;;;;;;14.50;99.90;;;13.53;79.08;94786.25;10285711;28;2124;-88
2021/05/13 13:28:30;;;;;;;;;;;14.60;99.90;;;13.87;75.40;94789.28;10293988;28;2139;-84
2021/05/13 13:33:33;;;;;;;;;;;14.70;99.90;;;12.02;75.75;94786.53;10290993;28;1914;-85
2021/05/13 13:38:36;;;;;;;;;;;14.00;99.90;;;11.50;75.23;94786.09;10289285;28;1819;-84
2021/05/13 13:43:38;;;;;;;;;;;12.80;99.90;;;11.88;70.42;94776.63;10312980;28;1173;-84
2021/05/13 13:48:41;;;;;;;;;;;12.80;99.90;;;12.40;66.73;94760.78;10293214;28;1926;-83
2021/05/13 13:53:43;;;;;;;;;;;13.10;99.90;;;12.69;65.33;94759.50;10304359;28;2313;-83
2021/05/13 13:58:46;;;;;;;;;;;13.60;99.90;;;13.45;62.04;94741.16;10298783;28;1986;-84
2021/05/13 14:03:48;;;;;;;;;;;14.00;99.90;;;13.75;56.30;94738.63;10324982;28;2284;-86
2021/05/13 14:08:51;;;;;;;;;;;14.40;99.90;;;13.98;56.05;94734.63;10341190;28;1963;-85
2021/05/13 14:13:53;;;;;;;;;;;14.60;99.90;;;14.02;59.67;94737.50;10343340;28;1979;-85
2021/05/13 14:18:55;;;;;;;;;;;14.80;99.90;;;13.77;60.30;94734.47;10339941;28;2315;-85
2021/05/13 14:23:58;;;;;;;;;;;14.80;99.90;;;13.68;60.30;94739.09;10300695;28;1229;-85
2021/05/13 14:29:00;;;;;;;;;;;14.70;99.90;;;13.94;60.54;94738.28;10313135;28;1571;-86
2021/05/13 14:34:03;;;;;;;;;;;14.70;99.90;;;14.39;60.69;94741.38;10309760;28;1907;-84
2021/05/13 14:39:05;;;;;;;;;;;15.00;99.90;;;14.20;63.50;94741.75;10284996;28;1980;-82
2021/05/13 14:44:08;;;;;;;;;;;15.20;99.90;;;14.07;62.38;94751.63;10285097;28;1888;-84
2021/05/13 14:49:14;;;;;;;;;;;15.10;99.90;;;14.35;62.28;94745.84;10287775;28;1311;-84
2021/05/13 14:54:17;;;;;;;;;;;15.20;99.90;;;14.78;61.37;94737.63;10307432;28;1912;-84
2021/05/13 14:59:19;;;;;;;;;;;15.50;99.90;;;15.10;56.71;94738.09;10305135;28;2068;-84
2021/05/13 15:04:23;;;;;;;;;;;15.90;99.90;;;15.26;58.74;94746.44;10307613;28;1122;-83
2021/05/13 15:09:25;;;;;;;;;;;16.00;99.90;;;15.16;60.80;94741.41;10301231;28;1312;-80
2021/05/13 15:14:28;;;;;;;;;;;16.10;99.90;;;15.05;62.83;94741.78;10308918;28;1989;-82
2021/05/13 15:19:30;;;;;;;;;;;16.00;99.90;;;14.79;63.57;94749.22;10310222;28;2000;-80
2021/05/13 15:24:35;;;;;;;;;;;15.90;99.90;;;14.57;65.14;94751.06;10305448;28;1178;-85
2021/05/13 15:29:38;;;;;;;;;;;15.70;99.90;;;14.49;64.57;94756.47;10294268;28;1403;-80
2021/05/13 15:34:40;;;;;;;;;;;16.90;99.90;;;14.31;65.83;94748.41;10303955;28;1973;-81
2021/05/13 15:39:44;;;;;;;;;;;15.40;99.90;;;13.86;67.16;94749.88;10315316;28;1682;-79
2021/05/13 15:45:00;;;;;;;;;;;15.30;99.90;;;13.55;67.49;94760.84;10324341;28;1980;-79
2021/05/13 15:50:02;;;;;;;;;;;14.90;99.90;;;12.73;73.38;94765.09;10321040;28;1305;-82
2021/05/13 15:55:05;;;;;;;;;;;14.30;99.90;;;12.36;75.07;94776.00;10319750;28;1964;-84
2021/05/13 16:00:12;;;;;;;;;;;13.80;99.90;;;11.89;79.82;94775.53;10322511;28;1513;-79
2021/05/13 16:05:18;;;;;;;;;;;13.40;99.90;;;11.56;79.09;94774.13;10329933;28;980;-81
2021/05/13 16:10:26;;;;;;;;;;;13.00;99.90;;;11.47;80.77;94778.66;10301945;28;1395;-81
2021/05/13 16:15:29;;;;;;;;;;;12.70;99.90;;;11.20;80.18;94769.53;10306735;28;1957;-81
2021/05/13 16:20:31;;;;;;;;;;;12.50;99.90;;;11.02;81.17;94781.22;10287533;28;1425;-84
2021/05/13 16:25:35;;;;;;;;;;;12.40;99.90;;;10.93;81.38;94770.34;10314986;28;2111;-82
2021/05/13 16:30:37;;;;;;;;;;;12.20;99.90;;;10.81;80.78;94762.81;10309662;28;1391;-82
2021/05/13 16:35:39;;;;;;;;;;;12.00;99.90;;;10.84;83.31;94766.78;10304688;28;1975;-82
2021/05/13 16:40:47;;;;;;;;;;;12.00;99.90;;;10.81;82.66;94760.13;10302413;28;1881;-83
2021/05/13 16:45:51;;;;;;;;;;;12.00;99.90;;;10.89;84.03;94766.69;10301569;28;2021;-82
2021/05/13 16:50:53;;;;;;;;;;;12.00;99.90;;;10.90;83.49;94773.66;10307203;28;2110;-85
2021/05/13 16:56:00;;;;;;;;;;;12.10;99.90;;;10.89;81.54;94788.19;10299228;28;1991;-84
2021/05/13 17:01:03;;;;;;;;;;;12.00;99.90;;;10.88;80.49;94796.53;10279503;28;2194;-82
2021/05/13 17:06:07;;;;;;;;;;;12.00;99.90;;;10.76;85.38;94795.16;10322828;28;2137;-84
2021/05/13 17:11:11;;;;;;;;;;;12.00;99.90;;;10.52;89.24;94789.16;10291896;28;2133;-82
2021/05/13 17:16:13;;;;;;;;;;;11.80;99.90;;;10.43;89.97;94790.94;10298071;28;2124;-82
2021/05/13 17:21:16;;;;;;;;;;;11.70;99.90;;;10.31;90.55;94790.59;10291162;28;1741;-82
2021/05/13 17:26:18;;;;;;;;;;;11.50;99.90;;;10.20;90.82;94788.06;10307514;28;1947;-82
2021/05/13 17:31:22;;;;;;;;;;;11.40;99.90;;;10.00;91.57;94801.84;10308620;28;1938;-82
2021/05/13 17:36:31;;;;;;;;;;;11.20;99.90;;;9.80;90.85;94812.88;10302588;28;1963;-83
2021/05/13 17:41:33;;;;;;;;;;;11.10;99.90;;;9.58;91.89;94808.91;10304848;28;1934;-84
2021/05/13 17:46:36;;;;;;;;;;;10.90;99.90;;;9.40;93.22;94820.44;10290620;28;2027;-82
2021/05/13 17:51:38;;;;;;;;;;;10.70;99.90;;;9.38;94.09;94822.63;10306632;28;2077;-85
2021/05/13 17:56:42;;;;;;;;;;;10.60;99.90;;;9.35;95.24;94825.84;10308802;28;1892;-83
2021/05/13 18:01:45;;;;;;;;;;;10.50;99.90;;;9.34;95.27;94818.91;10316305;28;2074;-85
2021/05/13 18:06:47;;;;;;;;;;;10.50;99.90;;;9.30;94.59;94823.25;10279919;28;2056;-83
2021/05/13 18:11:50;;;;;;;;;;;10.50;99.90;;;9.28;94.40;94826.22;10295858;28;1928;-84
2021/05/13 18:16:55;;;;;;;;;;;10.50;99.90;;;9.31;94.79;94832.91;10289923;28;2057;-82
2021/05/13 18:21:57;;;;;;;;;;;10.40;99.90;;;9.26;94.89;94841.00;10284219;28;1940;-82
2021/05/13 18:27:01;;;;;;;;;;;10.40;99.90;;;9.23;95.13;94849.63;10289456;28;2055;-85
2021/05/13 18:32:04;;;;;;;;;;;10.40;99.90;;;9.20;96.68;94857.16;10309194;28;2123;-84
2021/05/13 18:37:06;;;;;;;;;;;10.40;99.90;;;9.12;97.15;94865.84;10315371;28;2015;-83
2021/05/13 18:42:09;;;;;;;;;;;10.30;99.90;;;9.15;98.11;94867.94;10324518;28;2085;-83
2021/05/13 18:47:11;;;;;;;;;;;10.30;99.90;;;9.10;98.33;94876.06;10297759;28;2082;-83
2021/05/13 18:52:13;;;;;;;;;;;10.20;99.90;;;9.03;98.89;94891.66;10276975;28;2363;-81
2021/05/13 18:57:16;;;;;;;;;;;10.10;99.90;;;9.03;99.95;94898.91;10284616;28;2050;-83
2021/05/13 19:02:18;;;;;;;;;;;10.10;99.90;;;8.96;99.88;94909.97;10299633;28;2102;-82
2021/05/13 19:07:20;;;;;;;;;;;10.00;99.90;;;8.86;100.00;94913.56;10293941;28;2297;-83
2021/05/13 19:12:22;;;;;;;;;;;10.00;99.90;;;8.86;100.00;94910.88;10293044;28;2105;-82
2021/05/13 19:17:25;;;;;;;;;;;9.90;99.90;;;8.94;100.00;94920.19;10284278;28;2368;-84
2021/05/13 19:22:28;;;;;;;;;;;9.90;99.90;;;8.96;100.00;94925.25;10296784;28;2040;-83
2021/05/13 19:27:30;;;;;;;;;;;10.00;99.90;;;8.96;100.00;94930.63;10304108;28;2170;-81
2021/05/13 19:37:53;;;;;;;;;;;10.00;99.90;;;8.80;100.00;94929.97;10312209;28;1765;-86
2021/05/13 19:42:56;;;;;;;;;;;9.90;99.90;;;8.72;100.00;94933.28;10293365;28;2119;-86
2021/05/13 19:47:58;;;;;;;;;;;9.80;99.90;;;8.70;100.00;94932.75;10310508;28;2057;-86
2021/05/13 19:53:01;;;;;;;;;;;9.80;99.90;;;8.70;100.00;94932.75;10285291;28;2075;-85
2021/05/13 19:58:04;;;;;;;;;;;9.80;99.90;;;8.62;100.00;94936.84;10301541;28;2123;-86
2021/05/13 20:03:13;;;;;;;;;;;9.70;99.90;;;8.56;100.00;94938.75;10310171;28;2367;-85
2021/05/13 20:08:29;;;;;;;;;;;9.70;99.90;;;8.52;100.00;94945.75;10282071;28;2105;-85
2021/05/13 20:13:33;;;;;;;;;;;9.60;99.90;;;8.44;100.00;94946.34;10287079;28;1961;-85
2021/05/13 20:18:37;;;;;;;;;;;9.50;99.90;;;8.44;100.00;94951.69;10309111;28;2104;-86
2021/05/13 20:23:47;;;;;;;;;;;9.50;99.90;;;8.39;100.00;94957.88;10307220;28;2034;-85
2021/05/13 20:28:49;;;;;;;;;;;9.50;99.90;;;8.41;100.00;94952.28;10305253;28;1765;-84
2021/05/13 20:33:52;;;;;;;;;;;9.40;99.90;;;8.49;100.00;94957.03;10313219;28;2069;-85
2021/05/13 20:38:54;;;;;;;;;;;9.50;99.90;;;8.50;100.00;94947.91;10322825;28;2226;-85
2021/05/13 20:43:57;;;;;;;;;;;9.50;99.90;;;8.39;100.00;94960.56;10310853;28;1952;-87
2021/05/13 20:49:03;;;;;;;;;;;9.40;99.90;;;8.36;100.00;94955.00;10325201;28;1654;-86
2021/05/13 20:59:40;;;;;;;;;;;9.40;99.90;;;8.29;100.00;94965.97;10305472;28;2155;-85
2021/05/13 21:04:45;;;;;;;;;;;9.40;99.90;;;8.26;100.00;94963.06;10302276;28;2049;-84
2021/05/13 21:09:58;;;;;;;;;;;9.30;99.90;;;8.26;100.00;94971.09;10305041;28;2119;-84
2021/05/13 21:15:16;;;;;;;;;;;9.30;99.90;;;8.21;100.00;94966.59;10309811;28;2102;-83
2021/05/13 21:20:31;;;;;;;;;;;9.30;99.90;;;8.21;100.00;94968.47;10311145;28;2147;-82
2021/05/13 21:25:53;;;;;;;;;;;9.30;99.90;;;8.20;100.00;94969.50;10308190;28;1908;-83
2021/05/13 21:30:56;;;;;;;;;;;9.20;99.90;;;8.22;100.00;94967.38;10287980;28;1616;-83
2021/05/13 21:35:59;;;;;;;;;;;9.20;99.90;;;8.21;100.00;94969.25;10292155;28;2010;-84
2021/05/13 21:41:02;;;;;;;;;;;9.20;99.90;;;8.22;100.00;94968.19;10295849;28;2013;-83
2021/05/13 21:46:05;;;;;;;;;;;9.20;99.90;;;8.28;100.00;94964.38;10290404;28;2196;-85
2021/05/13 21:51:10;;;;;;;;;;;9.30;99.90;;;8.32;100.00;94965.41;10295566;28;2112;-83
2021/05/13 21:56:14;;;;;;;;;;;9.30;99.90;;;8.35;100.00;94962.22;10306243;28;1960;-89
2021/05/13 22:01:17;;;;;;;;;;;9.30;99.90;;;8.40;100.00;94966.75;10326955;28;1884;-86
2021/05/13 22:06:21;;;;;;;;;;;9.40;99.90;;;8.41;100.00;94972.91;10305001;28;1300;-84
2021/05/13 22:11:25;;;;;;;;;;;9.40;99.90;;;8.46;100.00;94971.00;10287236;28;1602;-83
2021/05/13 22:16:27;;;;;;;;;;;9.50;99.90;;;8.43;100.00;94966.19;10290005;28;1960;-80
2021/05/13 22:21:32;;;;;;;;;;;9.50;99.90;;;8.44;100.00;94966.97;10301246;28;1908;-82
2021/05/13 22:26:38;;;;;;;;;;;9.50;99.90;;;8.34;99.92;94965.94;10287093;28;1761;-83
2021/05/13 22:31:41;;;;;;;;;;;9.50;99.90;;;8.32;99.32;94969.97;10284122;28;1910;-83
2021/05/13 22:36:43;;;;;;;;;;;9.40;99.90;;;8.30;99.14;94966.78;10285945;28;1562;-83
2021/05/13 22:41:46;;;;;;;;;;;10.10;99.90;;;8.20;97.97;94973.00;10301858;28;2089;-81
2021/05/13 22:46:51;;;;;;;;;;;9.30;99.90;;;8.12;98.28;94976.25;10307572;28;2036;-85
2021/05/13 22:51:57;;;;;;;;;;;10.50;99.90;;;8.06;99.83;94978.16;10324592;28;2175;-86
2021/05/13 22:57:02;;;;;;;;;;;9.20;99.90;;;8.03;99.90;94981.41;10307331;28;1906;-85
2021/05/13 23:02:05;;;;;;;;;;;10.50;99.90;;;8.01;98.97;94985.41;10292895;28;2111;-85
2021/05/13 23:07:08;;;;;;;;;;;9.20;99.90;;;7.94;100.00;94990.28;10279907;28;2104;-82
2021/05/13 23:12:10;;;;;;;;;;;9.00;99.90;;;7.99;100.00;94983.03;10289618;28;2116;-85
2021/05/13 23:17:13;;;;;;;;;;;9.00;99.90;;;7.97;100.00;94966.47;10295566;28;1619;-82
2021/05/13 23:22:16;;;;;;;;;;;9.20;99.90;;;8.01;100.00;94964.81;10292863;28;2007;-83
2021/05/13 23:27:19;;;;;;;;;;;9.10;99.90;;;8.03;100.00;94961.88;10282718;28;2159;-83
2021/05/13 23:32:22;;;;;;;;;;;9.10;99.90;;;8.02;100.00;94957.59;10278511;28;2047;-81
2021/05/13 23:37:25;;;;;;;;;;;9.10;99.90;;;8.07;100.00;94953.00;10278735;28;1834;-84
2021/05/13 23:42:28;;;;;;;;;;;9.20;99.90;;;8.05;100.00;94951.69;10294754;28;2006;-82
2021/05/13 23:47:30;;;;;;;;;;;9.10;99.90;;;8.07;100.00;94953.00;10282013;28;1626;-83
2021/05/13 23:52:33;;;;;;;;;;;9.10;99.90;;;8.01;99.86;94950.63;10275823;28;1883;-83
2021/05/13 23:57:36;;;;;;;;;;;9.10;99.90;;;8.06;99.09;94950.59;10279007;28;2111;-84
